Detall de PIREP

Printer-friendly versionPDF version

[2015/12/08 08:33:00]
Flight IATA:CT3403
Pilot Number:012
Company ICAO:CAT
Aircraft Type:MD11/E
PAX:258
Aircraft Registration:PAX
Departing Airport: ENGM
Destination Airport: LEBL
Alternate Airport:LEPA
Online: VATSIM
Route:TOR P601 NIROD INSUS TUSKA UN873 JUIST UP174 WOODY UN872 KOVIN UM728 RESMI UN857 DIRMO UN855 PPG UP84 ALBER
Flight Level:F330
No Slew and time accel
No pause
Crash detect
Detect pilot in Cockpit between each 30 and 45 minutes
08:33 Zero fuel Weight: 403423 Lbs, Fuel Weight: 75762 Lbs
08:33 VATSIM:ENGM 080820Z VRB01KT 5000 -FZDZ OVC004 M01/M02 Q1025 TEMPO 3000 -FZDZ BR
08:33 VATSIM:LEBL 080800Z 32004KT 250V050 6000 SCT015 BKN042 13/11 Q1032 NOSIG
08:34 Parking Brakes off
08:42 Take-off
08:42 Take off Weight: 477508 Lbs
08:42 Wind: 357º @ 001 Knots Heading: 015º
08:42 POS N60º 12´ 09´´ E011º 05´ 01´´
08:42 Gear Up: 206 Knots
08:42 Flaps:3 at 206 Knots
08:44 Flaps:2 at 240 Knots
08:44 Flaps:1 at 244 Knots
08:44 Flaps:0 at 250 Knots
08:55 TOC
08:55 Fuel Weight: 65276 Lb
08:57 Wind:223º@073 Knots Heading: 201º Ground Speed: 405 Knots Altitude 33303 ft
09:12 Wind:203º@063 Knots Heading: 198º Ground Speed: 410 Knots Altitude 33356 ft
09:27 Wind:185º@070 Knots Heading: 193º Ground Speed: 404 Knots Altitude 33349 ft
09:42 Wind:178º@053 Knots Heading: 199º Ground Speed: 424 Knots Altitude 33398 ft
09:57 Wind:197º@032 Knots Heading: 217º Ground Speed: 443 Knots Altitude 33362 ft
10:12 Wind:242º@032 Knots Heading: 201º Ground Speed: 452 Knots Altitude 33372 ft
10:27 Wind:224º@044 Knots Heading: 214º Ground Speed: 431 Knots Altitude 33412 ft
10:42 Wind:234º@047 Knots Heading: 182º Ground Speed: 446 Knots Altitude 33458 ft
10:57 Wind:252º@042 Knots Heading: 184º Ground Speed: 464 Knots Altitude 33520 ft
11:12 Wind:275º@042 Knots Heading: 184º Ground Speed: 483 Knots Altitude 33546 ft
11:17 TOD
11:17 Fuel Weight: 26836 Lb
11:27 Wind:289º@014 Knots Heading: 192º Ground Speed: 354 Knots Altitude 14278 ft
11:32 Flaps:1 at 253 Knots
11:32 Flaps:2 at 238 Knots
11:32 Flaps:3 at 235 Knots
11:35 Gear Down: 197 Knots
11:38 Flaps:4 at 195 Knots
11:38 Flaps:3 at 195 Knots
11:38 Flaps:4 at 194 Knots
11:38 Flaps:5 at 194 Knots
11:38 Flaps:6 at 193 Knots
11:38 Flaps:7 at 192 Knots
11:38 Flaps:6 at 190 Knots
11:38 Flaps:7 at 189 Knots
11:42 Wind:354º@001 Knots Heading: 245º Ground Speed: 160 Knots Altitude 068 ft
11:42 TouchDown:Rate -332 ft/min Speed: 153 Knots
11:42 VATSIM:LEBL 081130Z 27002KT 9999 FEW011 SCT040 17/15 Q1032 NOSIG
11:42 Land
11:42 Wind:359º@001 Knots
11:42 Heading: 244º
11:42 Flight Duration: 03:00
11:42 Landing Weight: 425436 Lbs
11:42 POS N41º 17´ 59´´ E002º05´ 11´´
11:46 Parking brakes on
11:46 Block to Block Duration: 03:12
11:46 Final Fuel: 21503 Lbls
11:46 Spent Fuel: 54259 Lbls
11:46 Flight Length: 1243 NM
11:46 TOD Land Length: 124 NM

Exportar CSV

Powered by Drupal - Modified by Danger4k